.
WxDataArchive / Data Records for 2009-02-15
2009-02-14 February 2009 2009-02-16

Data Records for Sunday, 15 February 2009

Time	Temp	Chill	HIndex	Humid	Dewpt	 Wind 	HiWind	WindDir	Rain 	Barom 
-----	----	-----	------	-----	-----	------	------	-------	-----	----- 
00:00	29.3	29.3	29.3	77	23.0	0	2	270	0.00	30.230 
00:05	29.1	29.1	29.1	77	22.8	0	2	270	0.00	30.229 
00:10	29.0	29.0	29.0	77	22.7	0	2	270	0.00	30.230 
00:15	28.8	28.8	28.8	77	22.5	0	1	270	0.00	30.231 
00:20	28.7	28.7	28.7	78	22.7	0	1	270	0.00	30.231 
00:25	28.5	28.5	28.5	78	22.5	0	1	270	0.00	30.231 
00:30	28.4	28.4	28.4	79	22.7	0	1	292	0.00	30.230 
00:35	28.4	28.4	28.4	79	22.7	0	1	292	0.00	30.233 
00:40	28.4	28.4	28.4	79	22.7	0	1	292	0.00	30.233 
00:45	28.4	28.4	28.4	80	23.0	0	2	292	0.00	30.232 
00:50	28.4	28.4	28.4	79	22.7	0	2	315	0.00	30.232 
00:55	28.5	28.5	28.5	78	22.5	0	3	315	0.00	30.230 
01:00	28.7	28.7	28.7	78	22.7	0	2	315	0.00	30.231 
01:05	28.7	28.7	28.7	78	22.7	0	2	315	0.00	30.232 
01:10	28.5	28.5	28.5	78	22.5	0	1	292	0.00	30.236 
01:15	28.7	28.7	28.7	78	22.7	0	2	292	0.00	30.239 
01:20	28.7	28.7	28.7	78	22.7	0	2	292	0.00	30.242 
01:25	28.7	28.7	28.7	79	23.0	0	1	292	0.00	30.245 
01:30	28.7	28.7	28.7	79	23.0	0	2	315	0.00	30.245 
01:35	28.7	28.7	28.7	79	23.0	0	2	315	0.00	30.246 
01:40	28.5	28.5	28.5	79	22.8	0	1	315	0.00	30.246 
01:45	28.4	28.4	28.4	80	23.0	0	1	315	0.00	30.247 
01:50	28.2	28.2	28.2	80	22.8	0	2	315	0.00	30.247 
01:55	28.2	28.2	28.2	80	22.8	0	2	315	0.00	30.249 
02:00	28.1	28.1	28.1	80	22.7	0	1	315	0.00	30.249 
02:05	28.1	28.1	28.1	80	22.7	0	1	315	0.00	30.248 
02:10	27.9	27.9	27.9	80	22.5	0	1	315	0.00	30.248 
02:15	27.9	27.9	27.9	80	22.5	0	2	315	0.00	30.249 
02:20	27.9	27.9	27.9	80	22.5	0	1	315	0.00	30.250 
02:25	27.8	27.8	27.8	80	22.4	0	1	315	0.00	30.252 
02:30	27.8	27.8	27.8	80	22.4	0	0	---	0.00	30.253 
02:35	27.6	27.6	27.6	80	22.3	0	0	---	0.00	30.253 
02:40	27.5	27.5	27.5	80	22.2	0	1	315	0.00	30.258 
02:45	27.3	27.3	27.3	80	22.0	0	1	315	0.00	30.261 
02:50	27.3	27.3	27.3	79	21.7	0	0	---	0.00	30.262 
02:55	27.3	27.3	27.3	79	21.7	0	1	315	0.00	30.263 
03:00	27.2	27.2	27.2	79	21.6	0	0	---	0.00	30.264 
03:05	27.2	27.2	27.2	79	21.6	0	0	---	0.00	30.264 
03:10	27.0	27.0	27.0	79	21.4	0	1	315	0.00	30.263 
03:15	26.9	26.9	26.9	80	21.6	0	0	---	0.00	30.263 
03:20	26.7	26.7	26.7	80	21.4	0	0	---	0.00	30.263 
03:25	26.6	26.6	26.6	80	21.3	0	0	---	0.00	30.263 
03:30	26.4	26.4	26.4	80	21.1	0	0	---	0.00	30.265 
03:35	26.3	26.3	26.3	80	21.0	0	0	---	0.00	30.266 
03:40	26.1	26.1	26.1	80	20.8	0	0	---	0.00	30.267 
03:45	26.0	26.0	26.0	80	20.7	0	0	---	0.00	30.269 
03:50	25.7	25.7	25.7	81	20.7	0	0	---	0.00	30.270 
03:55	25.6	25.6	25.6	81	20.6	0	0	---	0.00	30.269 
04:00	25.4	25.4	25.4	81	20.4	0	0	---	0.00	30.270 
04:05	25.1	25.1	25.1	82	20.4	0	0	---	0.00	30.271 
04:10	25.0	25.0	25.0	82	20.3	0	0	---	0.00	30.269 
04:15	24.8	24.8	24.8	82	20.1	0	0	---	0.00	30.268 
04:20	24.5	24.5	24.5	83	20.1	0	0	---	0.00	30.266 
04:25	24.4	24.4	24.4	83	20.0	0	0	---	0.00	30.266 
04:30	24.1	24.1	24.1	83	19.7	0	0	---	0.00	30.265 
04:35	23.8	23.8	23.8	84	19.7	0	0	---	0.00	30.266 
04:40	23.6	23.6	23.6	84	19.5	0	0	---	0.00	30.266 
04:45	23.3	23.3	23.3	84	19.2	0	0	---	0.00	30.269 
04:50	23.0	23.0	23.0	84	18.9	0	0	---	0.00	30.270 
04:55	22.7	22.7	22.7	84	18.6	0	0	---	0.00	30.270 
05:00	22.4	22.4	22.4	84	18.3	0	0	---	0.00	30.270 
05:05	22.2	22.2	22.2	84	18.1	0	0	---	0.00	30.270 
05:10	21.9	21.9	21.9	85	18.1	0	0	---	0.00	30.270 
05:15	21.8	21.8	21.8	85	18.0	0	0	---	0.00	30.270 
05:20	21.6	21.6	21.6	86	18.1	0	0	---	0.00	30.268 
05:25	21.4	21.4	21.4	86	17.9	0	0	---	0.00	30.270 
05:30	21.3	21.3	21.3	87	18.0	0	0	---	0.00	30.271 
05:35	21.1	21.1	21.1	87	17.8	0	0	---	0.00	30.270 
05:40	21.1	21.1	21.1	87	17.8	0	0	---	0.00	30.269 
05:45	21.0	21.0	21.0	87	17.8	0	0	---	0.00	30.270 
05:50	21.0	21.0	21.0	88	18.0	0	0	---	0.00	30.269 
05:55	21.0	21.0	21.0	88	18.0	0	0	---	0.00	30.270 
06:00	20.8	20.8	20.8	88	17.8	0	0	---	0.00	30.270 
06:05	20.8	20.8	20.8	88	17.8	0	0	---	0.00	30.269 
06:10	20.6	20.6	20.6	88	17.6	0	0	---	0.00	30.269 
06:15	20.5	20.5	20.5	88	17.5	0	0	---	0.00	30.270 
06:20	20.5	20.5	20.5	89	17.8	0	0	---	0.00	30.270 
06:25	20.3	20.3	20.3	89	17.6	0	0	---	0.00	30.273 
06:30	20.3	20.3	20.3	89	17.6	0	0	---	0.00	30.274 
06:35	20.2	20.2	20.2	89	17.5	0	0	---	0.00	30.277 
06:40	20.2	20.2	20.2	89	17.5	0	0	---	0.00	30.278 
06:45	20.2	20.2	20.2	89	17.5	0	0	---	0.00	30.277 
06:50	20.2	20.2	20.2	89	17.5	0	0	---	0.00	30.280 
06:55	20.0	20.0	20.0	89	17.3	0	0	---	0.00	30.280 
07:00	20.0	20.0	20.0	89	17.3	0	0	---	0.00	30.286 
07:05	19.9	19.9	19.9	90	17.5	0	0	---	0.00	30.286 
07:10	19.9	19.9	19.9	90	17.5	0	0	---	0.00	30.285 
07:15	19.9	19.9	19.9	90	17.5	0	0	---	0.00	30.288 
07:20	19.9	19.9	19.9	90	17.5	0	0	---	0.00	30.289 
07:25	19.9	19.9	19.9	90	17.5	0	0	---	0.00	30.290 
07:30	19.9	19.9	19.9	90	17.5	0	0	---	0.00	30.291 
07:35	19.9	19.9	19.9	90	17.5	0	0	---	0.00	30.291 
07:40	19.9	19.9	19.9	90	17.5	0	0	---	0.00	30.296 
07:45	19.9	19.9	19.9	90	17.5	0	0	---	0.00	30.297 
07:50	19.9	19.9	19.9	90	17.5	0	0	---	0.00	30.298 
07:55	19.9	19.9	19.9	90	17.5	0	0	---	0.00	30.300 
08:00	20.0	20.0	20.0	91	17.8	0	0	---	0.00	30.302 
08:05	20.0	20.0	20.0	91	17.8	0	0	---	0.00	30.305 
08:10	20.2	20.2	20.2	91	18.0	0	0	---	0.00	30.306 
08:15	20.5	20.5	20.5	91	18.3	0	0	---	0.00	30.306 
08:20	20.8	20.8	20.8	91	18.6	0	0	---	0.00	30.305 
08:25	21.6	21.6	21.6	92	19.6	0	0	---	0.00	30.304 
08:30	22.4	22.4	22.4	92	20.4	0	1	315	0.00	30.305 
08:35	23.2	23.2	23.2	92	21.2	0	0	---	0.00	30.304 
08:40	23.9	23.9	23.9	92	21.9	0	1	315	0.00	30.305 
08:45	24.4	24.4	24.4	92	22.4	0	1	315	0.00	30.305 
08:50	25.0	25.0	25.0	92	23.0	0	1	315	0.00	30.307 
08:55	25.4	25.4	25.4	92	23.4	0	2	315	0.00	30.311 
09:00	25.8	25.8	25.8	91	23.5	0	1	315	0.00	30.311 
09:05	26.3	26.3	26.3	90	23.8	0	2	315	0.00	30.311 
09:10	26.7	26.7	26.7	89	23.9	0	3	270	0.00	30.310 
09:15	27.0	27.0	27.0	88	23.9	0	1	270	0.00	30.312 
09:20	27.5	27.5	27.5	86	23.9	0	2	270	0.00	30.312 
09:25	27.8	27.8	27.8	84	23.6	0	2	270	0.00	30.313 
09:30	28.4	28.4	28.4	82	23.6	0	3	270	0.00	30.316 
09:35	28.8	28.8	28.8	81	23.7	0	2	270	0.00	30.313 
09:40	29.1	29.1	29.1	78	23.1	0	1	270	0.00	30.317 
09:45	29.4	29.4	29.4	76	22.8	0	3	270	0.00	30.317 
09:50	29.7	29.7	29.7	73	22.1	0	2	270	0.00	30.317 
09:55	30.1	30.1	30.1	71	21.9	0	2	270	0.00	30.317 
10:00	30.7	30.7	30.7	69	21.8	0	2	22	0.00	30.314 
10:05	30.9	30.9	30.9	65	20.5	0	1	22	0.00	30.314 
10:10	31.0	31.0	31.0	64	20.3	0	2	338	0.00	30.312 
10:15	31.6	31.6	31.6	62	20.1	0	2	338	0.00	30.310 
10:20	32.1	32.1	32.1	60	19.8	0	2	338	0.00	30.309 
10:25	31.9	31.9	31.9	58	18.8	0	3	338	0.00	30.309 
10:30	31.3	31.3	31.3	57	17.9	0	3	0	0.00	30.310 
10:35	31.2	31.2	31.2	57	17.8	1	3	22	0.00	30.312 
10:40	31.2	31.2	31.2	59	18.6	0	2	0	0.00	30.311 
10:45	31.5	31.5	31.5	58	18.4	0	2	0	0.00	30.308 
10:50	31.6	31.6	31.6	56	17.7	1	3	0	0.00	30.307 
10:55	32.1	32.1	32.1	54	17.4	0	3	315	0.00	30.306 
11:00	31.5	31.5	31.5	53	16.4	0	2	338	0.00	30.307 
11:05	31.5	31.5	31.5	54	16.8	0	2	292	0.00	30.308 
11:10	32.1	32.1	32.1	54	17.4	0	2	315	0.00	30.306 
11:15	32.7	32.7	32.7	55	18.3	1	2	315	0.00	30.304 
11:20	32.4	32.4	32.4	54	17.6	1	3	338	0.00	30.304 
11:25	31.8	31.8	31.8	54	17.1	1	4	338	0.00	30.308 
11:30	31.5	31.5	31.5	54	16.8	1	4	338	0.00	30.309 
11:35	31.6	31.6	31.6	55	17.3	0	3	22	0.00	30.309 
11:40	31.8	31.8	31.8	54	17.1	1	3	22	0.00	30.310 
11:45	32.4	32.4	32.4	54	17.6	1	3	45	0.00	30.308 
11:50	32.7	32.7	32.7	54	17.9	1	3	0	0.00	30.306 
11:55	31.9	31.9	31.9	54	17.2	1	4	0	0.00	30.308 
12:00	31.3	31.3	31.3	54	16.6	1	4	338	0.00	30.305 
12:05	31.0	31.0	31.0	56	17.2	1	3	248	0.00	30.303 
12:10	31.0	31.0	31.0	54	16.3	0	3	248	0.00	30.302 
12:15	31.5	31.5	31.5	56	17.6	0	2	338	0.00	30.298 
12:20	32.4	32.4	32.4	55	18.1	0	3	338	0.00	30.296 
12:25	32.4	32.4	32.4	53	17.2	1	7	22	0.00	30.292 
12:30	32.1	32.1	32.1	54	17.4	1	3	45	0.00	30.293 
12:35	31.5	31.5	31.5	52	15.9	0	3	22	0.00	30.292 
12:40	31.5	31.5	31.5	54	16.8	0	2	22	0.00	30.291 
12:45	31.9	31.9	31.9	51	15.9	1	3	0	0.00	30.287 
12:50	32.7	32.7	32.7	51	16.6	1	10	315	0.00	30.285 
12:55	32.7	32.7	32.7	50	16.1	1	4	0	0.00	30.285 
13:00	32.5	32.5	32.5	50	16.0	1	3	22	0.00	30.284 
13:05	32.5	32.5	32.5	51	16.4	0	3	338	0.00	30.284 
13:10	32.7	32.7	32.7	50	16.1	0	3	45	0.00	30.282 
13:15	33.4	33.4	33.4	54	18.6	1	3	292	0.00	30.281 
13:20	33.4	33.4	33.4	52	17.7	1	5	22	0.00	30.279 
13:25	32.8	32.8	32.8	54	18.0	1	3	22	0.00	30.280 
13:30	32.2	32.2	32.2	52	16.6	1	3	0	0.00	30.281 
13:35	31.8	31.8	31.8	54	17.1	1	3	22	0.00	30.280 
13:40	31.6	31.6	31.6	53	16.5	1	3	0	0.00	30.280 
13:45	32.1	32.1	32.1	52	16.5	1	4	248	0.00	30.279 
13:50	32.9	32.9	32.9	50	16.3	1	4	0	0.00	30.278 
13:55	33.2	33.2	33.2	48	15.7	1	4	45	0.00	30.278 
14:00	33.1	33.1	33.1	49	16.0	1	2	338	0.00	30.276 
14:05	32.7	32.7	32.7	53	17.5	1	4	292	0.00	30.276 
14:10	32.1	32.1	32.1	53	16.9	1	3	0	0.00	30.279 
14:15	31.9	31.9	31.9	54	17.2	1	3	315	0.00	30.280 
14:20	31.8	31.8	31.8	52	16.2	1	4	270	0.00	30.280 
14:25	31.9	31.9	31.9	51	15.9	0	3	270	0.00	30.278 
14:30	32.4	32.4	32.4	53	17.2	1	5	0	0.00	30.278 
14:35	32.5	32.5	32.5	53	17.3	2	5	338	0.00	30.278 
14:40	32.7	32.7	32.7	52	17.0	1	4	315	0.00	30.279 
14:45	32.5	32.5	32.5	53	17.3	1	5	0	0.00	30.280 
14:50	32.4	32.4	32.4	53	17.2	1	3	0	0.00	30.281 
14:55	32.1	32.1	32.1	52	16.5	1	5	22	0.00	30.282 
15:00	31.9	31.9	31.9	52	16.3	1	5	338	0.00	30.281 
15:05	32.2	32.2	32.2	51	16.1	1	3	315	0.00	30.283 
15:10	32.5	32.5	32.5	51	16.4	1	4	270	0.00	30.284 
15:15	32.5	32.5	32.5	50	16.0	0	2	338	0.00	30.283 
15:20	32.4	32.4	32.4	47	14.4	2	4	292	0.00	30.284 
15:25	32.5	32.5	32.5	50	16.0	1	4	292	0.00	30.286 
15:30	33.1	33.1	33.1	47	15.1	2	5	270	0.00	30.286 
15:35	33.4	33.4	33.4	45	14.4	1	5	0	0.00	30.287 
15:40	33.5	33.5	33.5	48	15.9	2	5	292	0.00	30.287 
15:45	33.2	33.2	33.2	48	15.7	1	3	292	0.00	30.288 
15:50	32.8	32.8	32.8	49	15.8	1	4	292	0.00	30.287 
15:55	32.5	32.5	32.5	50	16.0	1	3	292	0.00	30.290 
16:00	32.2	32.2	32.2	49	15.2	2	6	270	0.00	30.293 
16:05	32.1	32.1	32.1	49	15.1	1	3	270	0.00	30.296 
16:10	31.9	31.9	31.9	47	14.0	1	2	315	0.00	30.295 
16:15	31.9	31.9	31.9	47	14.0	1	3	315	0.00	30.296 
16:20	31.8	31.8	31.8	48	14.4	0	2	315	0.00	30.296 
16:25	31.8	31.8	31.8	47	13.9	1	3	248	0.00	30.296 
16:30	31.9	31.9	31.9	48	14.5	0	5	315	0.00	30.297 
16:35	31.9	31.9	31.9	46	13.5	1	5	315	0.00	30.296 
16:40	31.8	31.8	31.8	48	14.4	1	3	338	0.00	30.299 
16:45	31.8	31.8	31.8	49	14.8	0	2	270	0.00	30.299 
16:50	31.8	31.8	31.8	48	14.4	0	2	315	0.00	30.300 
16:55	31.6	31.6	31.6	49	14.7	0	1	315	0.00	30.301 
17:00	31.6	31.6	31.6	48	14.2	0	2	338	0.00	30.301 
17:05	31.5	31.5	31.5	48	14.1	1	3	315	0.00	30.303 
17:10	31.5	31.5	31.5	49	14.6	0	2	315	0.00	30.304 
17:15	31.3	31.3	31.3	47	13.4	1	3	248	0.00	30.304 
17:20	31.3	31.3	31.3	48	13.9	0	2	338	0.00	30.304 
17:25	31.2	31.2	31.2	48	13.8	0	2	338	0.00	30.303 
17:30	31.0	31.0	31.0	52	15.5	0	2	338	0.00	30.304 
17:35	30.9	30.9	30.9	54	16.2	0	1	338	0.00	30.304 
17:40	30.7	30.7	30.7	54	16.0	0	1	338	0.00	30.306 
17:45	30.6	30.6	30.6	55	16.4	0	1	338	0.00	30.306 
17:50	30.4	30.4	30.4	56	16.6	0	1	338	0.00	30.308 
17:55	30.3	30.3	30.3	56	16.5	0	2	338	0.00	30.311 
18:00	30.3	30.3	30.3	57	16.9	0	1	338	0.00	30.310 
18:05	30.1	30.1	30.1	56	16.3	0	1	338	0.00	30.311 
18:10	30.1	30.1	30.1	56	16.3	0	2	338	0.00	30.313 
18:15	30.1	30.1	30.1	56	16.3	0	1	338	0.00	30.315 
18:20	30.0	30.0	30.0	56	16.2	0	0	---	0.00	30.315 
18:25	30.0	30.0	30.0	57	16.6	0	1	338	0.00	30.316 
18:30	30.0	30.0	30.0	58	17.0	0	1	338	0.00	30.317 
18:35	29.8	29.8	29.8	58	16.8	0	1	338	0.00	30.317 
18:40	29.8	29.8	29.8	58	16.8	0	2	338	0.00	30.319 
18:45	29.7	29.7	29.7	60	17.5	0	1	338	0.00	30.318 
18:50	29.7	29.7	29.7	62	18.3	0	1	338	0.00	30.318 
18:55	29.5	29.5	29.5	63	18.5	0	1	338	0.00	30.318 
19:00	29.4	29.4	29.4	64	18.8	0	0	---	0.00	30.321 
19:05	29.3	29.3	29.3	65	19.0	0	0	---	0.00	30.322 
19:10	29.1	29.1	29.1	66	19.2	0	0	---	0.00	30.323 
19:15	29.0	29.0	29.0	67	19.4	0	0	---	0.00	30.324 
19:20	28.7	28.7	28.7	67	19.2	0	0	---	0.00	30.324 
19:25	28.7	28.7	28.7	68	19.5	0	1	338	0.00	30.329 
19:30	28.5	28.5	28.5	69	19.6	0	1	0	0.00	30.331 
19:35	28.5	28.5	28.5	69	19.6	0	1	0	0.00	30.331 
19:40	28.5	28.5	28.5	70	20.0	0	1	0	0.00	30.330 
19:45	28.5	28.5	28.5	71	20.3	0	1	0	0.00	30.331 
19:50	28.5	28.5	28.5	72	20.6	0	3	0	0.00	30.331 
19:55	28.4	28.4	28.4	72	20.5	0	0	---	0.00	30.335 
20:00	28.4	28.4	28.4	73	20.9	0	1	22	0.00	30.334 
20:05	28.4	28.4	28.4	73	20.9	0	1	22	0.00	30.329 
20:10	28.4	28.4	28.4	73	20.9	0	2	22	0.00	30.328 
20:15	28.2	28.2	28.2	72	20.4	0	0	---	0.00	30.328 
20:20	28.2	28.2	28.2	72	20.4	0	1	22	0.00	30.328 
20:25	28.2	28.2	28.2	72	20.4	0	1	22	0.00	30.329 
20:30	28.2	28.2	28.2	72	20.4	0	0	---	0.00	30.330 
20:35	28.4	28.4	28.4	72	20.5	0	0	---	0.00	30.330 
20:40	28.4	28.4	28.4	72	20.5	0	0	---	0.00	30.328 
20:45	28.4	28.4	28.4	71	20.2	0	0	---	0.00	30.330 
20:50	28.4	28.4	28.4	71	20.2	0	1	22	0.00	30.329 
20:55	28.4	28.4	28.4	71	20.2	0	1	22	0.00	30.329 
21:00	28.4	28.4	28.4	71	20.2	0	1	22	0.00	30.330 
21:05	28.2	28.2	28.2	70	19.7	0	0	---	0.00	30.327 
21:10	28.2	28.2	28.2	70	19.7	0	1	22	0.00	30.327 
21:15	28.2	28.2	28.2	69	19.4	0	1	22	0.00	30.328 
21:20	28.2	28.2	28.2	68	19.0	0	1	22	0.00	30.329 
21:25	28.2	28.2	28.2	68	19.0	0	0	---	0.00	30.329 
21:30	28.2	28.2	28.2	68	19.0	0	0	---	0.00	30.329 
21:35	28.2	28.2	28.2	69	19.4	0	0	---	0.00	30.329 
21:40	28.2	28.2	28.2	69	19.4	0	1	22	0.00	30.329 
21:45	28.2	28.2	28.2	70	19.7	0	0	---	0.00	30.330 
21:50	28.2	28.2	28.2	70	19.7	0	0	---	0.00	30.332 
21:55	28.2	28.2	28.2	70	19.7	0	0	---	0.00	30.333 
22:00	28.1	28.1	28.1	70	19.6	0	0	---	0.00	30.334 
22:05	28.1	28.1	28.1	70	19.6	0	1	22	0.00	30.332 
22:10	28.1	28.1	28.1	70	19.6	0	1	22	0.00	30.331 
22:15	28.1	28.1	28.1	69	19.3	0	0	---	0.00	30.331 
22:20	27.9	27.9	27.9	69	19.1	0	1	22	0.00	30.333 
22:25	27.9	27.9	27.9	69	19.1	0	0	---	0.00	30.333 
22:30	27.9	27.9	27.9	68	18.7	0	0	---	0.00	30.334 
22:35	27.9	27.9	27.9	68	18.7	0	0	---	0.00	30.334 
22:40	27.9	27.9	27.9	68	18.7	0	0	---	0.00	30.334 
22:45	27.9	27.9	27.9	69	19.1	0	0	---	0.00	30.336 
22:50	27.9	27.9	27.9	69	19.1	0	0	---	0.00	30.336 
22:55	27.9	27.9	27.9	69	19.1	0	0	---	0.00	30.337 
23:00	27.8	27.8	27.8	69	19.0	0	0	---	0.00	30.337 
23:05	27.8	27.8	27.8	69	19.0	0	0	---	0.00	30.340 
23:10	27.8	27.8	27.8	69	19.0	0	0	---	0.00	30.340 
23:15	27.6	27.6	27.6	69	18.8	0	0	---	0.00	30.342 
23:20	27.6	27.6	27.6	69	18.8	0	0	---	0.00	30.343 
23:25	27.5	27.5	27.5	69	18.7	0	0	---	0.00	30.343 
23:30	27.5	27.5	27.5	69	18.7	0	0	---	0.00	30.344 
23:35	27.5	27.5	27.5	69	18.7	0	0	---	0.00	30.345 
23:40	27.5	27.5	27.5	70	19.0	0	0	---	0.00	30.346 
23:45	27.5	27.5	27.5	69	18.7	0	0	---	0.00	30.348 
23:50	27.5	27.5	27.5	70	19.0	0	0	---	0.00	30.350 
23:55	27.5	27.5	27.5	69	18.7	0	0	---	0.00	30.351 

CoCoRaHS
IN-AL-39
A2 Web Hosting
Creative Commons License
GoDaddy
search engine by freefind advanced

loaded 2018-11-13 17:04:34 • last modified 2010-11-18 10:43:29
Privacy PolicyDisclaimer
• wx.awcolley.com is powered by PmWiki v.2002016 •
• all content (unless otherwise noted) © 2018 A W Colley